createdAt,value
2019-03-25T00:04:35.912Z,49.18
2019-03-25T00:09:38.577Z,49.02
2019-03-25T00:14:44.765Z,49.38
2019-03-25T00:19:52.638Z,48.97
2019-03-25T00:24:58.534Z,49.43
2019-03-25T00:30:06.173Z,50.96
2019-03-25T00:35:13.523Z,50.58
2019-03-25T00:40:20.607Z,51.66
2019-03-25T00:45:27.659Z,51.89
2019-03-25T00:50:38.397Z,53.41
2019-03-25T00:55:46.192Z,52.63
2019-03-25T01:00:52.465Z,51.51
2019-03-25T01:06:01.604Z,51.44
2019-03-25T01:11:06.939Z,49.70
2019-03-25T01:16:13.338Z,49.03
2019-03-25T01:21:20.778Z,49.67
2019-03-25T01:26:29.936Z,49.18
2019-03-25T01:31:37.446Z,49.64
2019-03-25T01:36:44.266Z,49.37
2019-03-25T01:41:49.518Z,49.39
2019-03-25T01:46:55.369Z,50.71
2019-03-25T01:52:00.477Z,49.67
2019-03-25T01:57:09.018Z,50.60
2019-03-25T02:02:34.372Z,50.88
2019-03-25T02:07:41.031Z,50.52
2019-03-25T02:12:43.842Z,50.75
2019-03-25T02:17:46.296Z,50.61
2019-03-25T02:22:53.825Z,50.39
2019-03-25T02:27:58.711Z,50.80
2019-03-25T02:33:05.987Z,50.94
2019-03-25T02:38:12.525Z,51.65
2019-03-25T02:43:17.139Z,52.61
2019-03-25T02:48:25.466Z,51.85
2019-03-25T02:53:32.039Z,52.33
2019-03-25T02:58:38.303Z,52.18
2019-03-25T03:03:43.418Z,51.93
2019-03-25T03:08:48.585Z,51.28
2019-03-25T03:13:54.070Z,50.88
2019-03-25T03:18:59.049Z,52.30
2019-03-25T03:24:10.176Z,51.63
2019-03-25T03:29:15.298Z,51.36
2019-03-25T03:34:23.230Z,51.05
2019-03-25T03:39:30.149Z,50.62
2019-03-25T03:44:37.714Z,50.35
2019-03-25T03:49:46.707Z,50.52
2019-03-25T03:54:56.230Z,50.82
2019-03-25T04:00:02.080Z,50.92
2019-03-25T04:05:08.605Z,50.99
2019-03-25T04:10:15.267Z,51.77
2019-03-25T04:15:29.558Z,51.97
2019-03-25T04:20:37.827Z,52.18
2019-03-25T04:25:43.374Z,52.27
2019-03-25T04:30:49.686Z,53.51
2019-03-25T04:36:00.391Z,54.05
2019-03-25T04:41:06.333Z,53.09
2019-03-25T04:46:12.950Z,52.36
2019-03-25T04:51:20.435Z,52.11
2019-03-25T04:56:38.959Z,51.37
2019-03-25T05:01:36.086Z,51.57
2019-03-25T05:06:42.830Z,51.52
2019-03-25T05:11:50.119Z,50.77
2019-03-25T05:16:57.119Z,51.48
2019-03-25T05:22:02.241Z,52.07
2019-03-25T05:27:08.889Z,52.45
2019-03-25T05:32:14.630Z,51.47
2019-03-25T05:37:20.039Z,51.60
2019-03-25T05:42:25.629Z,52.83
2019-03-25T05:47:31.707Z,53.89
2019-03-25T05:52:36.940Z,57.08
2019-03-25T05:57:42.553Z,59.94
2019-03-25T06:02:47.276Z,60.96
2019-03-25T06:07:55.062Z,62.31
2019-03-25T06:13:02.656Z,62.05
2019-03-25T06:18:13.432Z,63.02
2019-03-25T06:23:19.777Z,65.11
2019-03-25T06:28:29.480Z,65.99
2019-03-25T06:33:35.751Z,67.11
2019-03-25T06:39:01.869Z,68.09
2019-03-25T06:44:10.084Z,68.27
2019-03-25T06:49:15.634Z,68.32
2019-03-25T06:54:21.589Z,68.10
2019-03-25T06:59:27.726Z,67.70
2019-03-25T07:04:30.020Z,66.82
2019-03-25T07:16:06.051Z,69.41
2019-03-25T07:21:12.685Z,70.14
2019-03-25T07:26:20.222Z,69.43
2019-03-25T07:31:25.853Z,68.98
2019-03-25T07:36:32.050Z,67.17
2019-03-25T07:41:38.369Z,67.89
2019-03-25T07:46:44.381Z,68.80
2019-03-25T07:51:50.110Z,66.92
2019-03-25T07:56:55.659Z,69.88
2019-03-25T08:02:01.455Z,69.29
2019-03-25T08:07:07.016Z,70.53
2019-03-25T08:12:12.587Z,68.76
2019-03-25T08:17:18.143Z,67.86
2019-03-25T08:22:23.855Z,68.27
2019-03-25T08:27:29.848Z,69.45
2019-03-25T08:32:35.403Z,68.16
2019-03-25T08:37:41.850Z,68.03
2019-03-25T08:42:47.986Z,67.58
2019-03-25T08:47:53.610Z,66.79
2019-03-25T08:52:59.390Z,67.72
2019-03-25T08:58:11.986Z,66.36
2019-03-25T09:03:13.970Z,65.99
2019-03-25T09:08:20.547Z,65.69
2019-03-25T09:13:27.744Z,65.56
2019-03-25T09:18:33.766Z,64.02
2019-03-25T09:23:40.976Z,63.57
2019-03-25T09:28:46.917Z,64.19
2019-03-25T09:33:53.010Z,64.52
2019-03-25T09:38:58.711Z,62.96
2019-03-25T09:44:05.997Z,59.58
2019-03-25T09:49:11.616Z,59.52
2019-03-25T09:54:17.366Z,58.00
2019-03-25T09:59:23.146Z,57.38
2019-03-25T10:04:29.096Z,59.27
2019-03-25T10:09:35.906Z,57.98
2019-03-25T10:14:41.456Z,57.74
2019-03-25T10:19:47.918Z,58.43
2019-03-25T10:24:55.056Z,60.21
2019-03-25T10:30:01.282Z,61.90
2019-03-25T10:35:08.439Z,61.15
2019-03-25T10:40:16.343Z,60.71
2019-03-25T10:45:23.848Z,57.88
2019-03-25T10:50:29.768Z,58.30
2019-03-25T10:55:35.314Z,57.86
2019-03-25T11:00:40.959Z,56.88
2019-03-25T11:05:46.818Z,54.80
2019-03-25T11:10:53.216Z,55.54
2019-03-25T11:15:58.902Z,58.10
2019-03-25T11:21:05.759Z,57.10
2019-03-25T11:26:11.736Z,57.07
2019-03-25T11:31:17.584Z,59.95
2019-03-25T11:36:23.134Z,59.59
2019-03-25T11:41:29.748Z,57.00
2019-03-25T11:46:35.442Z,55.56
2019-03-25T11:51:41.208Z,52.19
2019-03-25T11:56:47.482Z,49.61
2019-03-25T12:01:54.534Z,51.61
2019-03-25T12:07:01.016Z,49.40
2019-03-25T12:12:06.892Z,47.30
2019-03-25T12:17:12.692Z,50.23
2019-03-25T12:22:18.332Z,52.05
2019-03-25T12:27:24.226Z,51.69
2019-03-25T12:32:30.065Z,51.07
2019-03-25T12:37:35.678Z,48.56
2019-03-25T12:42:42.558Z,47.20
2019-03-25T12:47:48.572Z,45.75
2019-03-25T12:52:55.314Z,46.13
2019-03-25T12:58:02.585Z,43.95
2019-03-25T13:03:11.494Z,46.31
2019-03-25T13:08:17.395Z,53.60
2019-03-25T13:13:23.033Z,54.60
2019-03-25T13:18:28.900Z,53.27
2019-03-25T13:23:35.548Z,49.84
2019-03-25T13:28:42.117Z,48.29
2019-03-25T13:33:48.221Z,45.55
2019-03-25T13:38:54.336Z,44.18
2019-03-25T13:44:00.134Z,45.94
2019-03-25T13:49:06.161Z,49.58
2019-03-25T13:54:11.958Z,51.28
2019-03-25T13:59:17.604Z,53.16
2019-03-25T14:04:23.743Z,53.81
2019-03-25T14:09:29.391Z,57.54
2019-03-25T14:14:36.586Z,56.67
2019-03-25T14:19:42.284Z,59.13
2019-03-25T14:24:48.796Z,56.86
2019-03-25T14:29:55.259Z,58.34
2019-03-25T14:35:02.514Z,56.91
2019-03-25T14:40:08.623Z,55.25
2019-03-25T14:45:26.108Z,55.26
2019-03-25T14:50:24.748Z,54.15
2019-03-25T14:55:30.829Z,50.79
2019-03-25T15:00:37.010Z,50.56
2019-03-25T15:05:44.282Z,52.60
2019-03-25T15:10:53.738Z,50.52
2019-03-25T15:15:57.781Z,48.87
2019-03-25T15:21:04.910Z,46.56
2019-03-25T15:26:10.733Z,44.78
2019-03-25T15:31:19.182Z,43.88
2019-03-25T15:36:25.726Z,45.48
2019-03-25T15:41:31.819Z,43.05
2019-03-25T15:46:39.048Z,40.14
2019-03-25T15:51:46.441Z,40.48
2019-03-25T15:56:52.983Z,40.41
2019-03-25T16:01:59.460Z,41.89
2019-03-25T16:07:06.890Z,41.18
2019-03-25T16:12:15.055Z,39.84
2019-03-25T16:17:21.030Z,41.30
2019-03-25T16:22:26.681Z,41.86
2019-03-25T16:27:34.292Z,38.83
2019-03-25T16:32:41.224Z,36.91
2019-03-25T16:37:48.570Z,40.79
2019-03-25T16:42:54.583Z,40.74
2019-03-25T16:48:00.446Z,41.15
2019-03-25T16:53:06.420Z,39.75
2019-03-25T16:58:12.980Z,38.43
2019-03-25T17:03:19.106Z,40.79
2019-03-25T17:08:26.626Z,46.49
2019-03-25T17:13:32.504Z,48.42
2019-03-25T17:18:39.042Z,47.96
2019-03-25T17:23:44.964Z,49.64
2019-03-25T17:28:50.552Z,49.42
2019-03-25T17:33:57.080Z,49.19
2019-03-25T17:39:03.578Z,50.81
2019-03-25T17:44:10.512Z,50.55
2019-03-25T17:49:17.953Z,49.97
2019-03-25T17:54:23.986Z,49.81
2019-03-25T17:59:30.320Z,49.27
2019-03-25T18:04:37.612Z,49.31
2019-03-25T18:09:44.814Z,48.52
2019-03-25T18:14:50.441Z,48.48
2019-03-25T18:19:56.441Z,49.06
2019-03-25T18:25:02.447Z,49.25
2019-03-25T18:30:09.071Z,48.82
2019-03-25T18:35:18.206Z,49.06
2019-03-25T18:40:24.171Z,49.08
2019-03-25T18:45:30.867Z,48.45
2019-03-25T18:50:36.661Z,47.90
2019-03-25T18:55:42.663Z,48.00
2019-03-25T19:00:48.821Z,47.79
2019-03-25T19:05:54.380Z,48.03
2019-03-25T19:11:00.082Z,48.62
2019-03-25T19:16:05.968Z,48.17
2019-03-25T19:21:12.751Z,48.23
2019-03-25T19:26:19.157Z,48.75
2019-03-25T19:31:25.319Z,49.31
2019-03-25T19:36:31.083Z,50.34
2019-03-25T19:41:37.185Z,49.65
2019-03-25T19:46:43.140Z,49.42
2019-03-25T19:51:49.158Z,49.65
2019-03-25T19:56:55.007Z,50.12
2019-03-25T20:02:00.575Z,49.57
2019-03-25T20:07:06.634Z,49.78
2019-03-25T20:12:14.387Z,49.12
2019-03-25T20:17:20.481Z,49.94
2019-03-25T20:22:26.492Z,50.63
2019-03-25T20:27:32.409Z,51.56
2019-03-25T20:32:38.182Z,51.03
2019-03-25T20:37:44.480Z,51.96
2019-03-25T20:42:50.627Z,51.97
2019-03-25T20:47:56.453Z,51.18
2019-03-25T20:53:02.392Z,51.46
2019-03-25T20:58:08.522Z,51.63
2019-03-25T21:03:14.857Z,51.81
2019-03-25T21:08:20.541Z,52.73
2019-03-25T21:13:27.056Z,52.55
2019-03-25T21:18:33.292Z,52.33
2019-03-25T21:23:40.449Z,53.38
2019-03-25T21:28:46.575Z,54.39
2019-03-25T21:33:52.423Z,55.59
2019-03-25T21:38:58.126Z,56.29
2019-03-25T21:44:06.548Z,56.87
2019-03-25T21:49:12.123Z,56.37
2019-03-25T21:54:17.991Z,57.59
2019-03-25T21:59:24.485Z,57.34
2019-03-25T22:04:33.752Z,58.13
2019-03-25T22:09:40.813Z,57.03
2019-03-25T22:14:46.606Z,57.21
2019-03-25T22:19:52.718Z,57.89
2019-03-25T22:25:01.332Z,58.46
2019-03-25T22:30:08.480Z,57.72
2019-03-25T22:35:14.573Z,57.87
2019-03-25T22:40:20.609Z,57.80
2019-03-25T22:45:30.536Z,57.66
2019-03-25T22:50:36.955Z,58.97
2019-03-25T22:55:42.994Z,60.38
2019-03-25T23:00:50.053Z,59.42
2019-03-25T23:05:57.100Z,58.79
2019-03-25T23:11:03.539Z,60.01
2019-03-25T23:16:10.426Z,60.82
2019-03-25T23:21:16.497Z,60.76
2019-03-25T23:26:23.427Z,62.13
2019-03-25T23:31:29.631Z,62.32
2019-03-25T23:36:36.075Z,61.60
2019-03-25T23:41:41.890Z,63.27
2019-03-25T23:46:47.618Z,61.87
2019-03-25T23:51:53.695Z,62.91
2019-03-25T23:56:59.830Z,61.72
